createdAt,value
2023-03-28T00:01:07.834Z,98.20
2023-03-28T00:03:39.357Z,97.40
2023-03-28T00:06:11.281Z,98.17
2023-03-28T00:08:40.943Z,95.73
2023-03-28T00:11:11.460Z,95.30
2023-03-28T00:13:41.053Z,95.17
2023-03-28T00:16:12.554Z,93.00
2023-03-28T00:18:42.720Z,96.07
2023-03-28T00:21:23.318Z,94.67
2023-03-28T00:23:53.872Z,94.20
2023-03-28T00:26:24.737Z,92.07
2023-03-28T00:28:54.742Z,92.73
2023-03-28T00:31:23.277Z,91.93
2023-03-28T00:33:51.568Z,92.53
2023-03-28T00:36:22.942Z,90.63
2023-03-28T00:38:52.373Z,88.73
2023-03-28T00:41:21.926Z,94.07
2023-03-28T00:43:52.680Z,90.50
2023-03-28T00:46:26.388Z,92.20
2023-03-28T00:48:57.500Z,91.53
2023-03-28T00:51:31.312Z,92.43
2023-03-28T00:54:01.985Z,92.80
2023-03-28T00:56:34.818Z,94.00
2023-03-28T00:59:08.001Z,91.80
2023-03-28T01:01:37.667Z,92.30
2023-03-28T01:04:06.897Z,90.23
2023-03-28T01:06:38.144Z,89.90
2023-03-28T01:09:09.183Z,91.47
2023-03-28T01:11:39.651Z,89.80
2023-03-28T01:14:13.236Z,88.40
2023-03-28T01:16:43.178Z,91.07
2023-03-28T01:19:22.054Z,90.37
2023-03-28T01:22:26.947Z,89.50
2023-03-28T01:25:20.450Z,87.23
2023-03-28T01:27:53.292Z,86.27
2023-03-28T01:30:47.555Z,87.47
2023-03-28T01:33:39.642Z,89.90
2023-03-28T01:36:49.422Z,90.20
2023-03-28T01:39:29.985Z,89.63
2023-03-28T01:42:03.595Z,87.17
2023-03-28T01:44:38.052Z,87.47
2023-03-28T01:47:12.753Z,84.47
2023-03-28T01:49:48.443Z,85.47
2023-03-28T01:52:22.948Z,84.37
2023-03-28T01:54:58.323Z,84.40
2023-03-28T01:57:30.803Z,85.10
2023-03-28T02:00:11.550Z,82.30
2023-03-28T02:02:44.770Z,83.30
2023-03-28T02:05:15.829Z,79.70
2023-03-28T02:07:48.274Z,77.23
2023-03-28T02:10:19.226Z,74.53
2023-03-28T02:12:50.146Z,76.00
2023-03-28T02:15:21.716Z,77.00
2023-03-28T02:17:55.567Z,77.57
2023-03-28T02:20:28.672Z,76.00
2023-03-28T02:23:01.974Z,75.70
2023-03-28T02:25:31.867Z,75.17
2023-03-28T02:28:03.548Z,74.20
2023-03-28T02:30:31.939Z,72.20
2023-03-28T02:33:01.398Z,71.60
2023-03-28T02:35:34.297Z,73.03
2023-03-28T02:38:13.467Z,71.00
2023-03-28T02:40:52.092Z,72.80
2023-03-28T02:43:32.482Z,72.40
2023-03-28T02:46:14.081Z,72.93
2023-03-28T02:48:56.628Z,72.07
2023-03-28T02:51:34.761Z,74.50
2023-03-28T02:54:21.969Z,78.30
2023-03-28T02:57:01.538Z,79.97
2023-03-28T02:59:34.785Z,81.80
2023-03-28T03:02:04.825Z,81.47
2023-03-28T03:04:33.097Z,81.13
2023-03-28T03:07:02.648Z,82.33
2023-03-28T03:09:33.242Z,83.13
2023-03-28T03:12:01.620Z,84.67
2023-03-28T03:14:29.786Z,84.53
2023-03-28T03:16:57.965Z,85.90
2023-03-28T03:19:26.391Z,87.67
2023-03-28T03:21:55.356Z,89.70
2023-03-28T03:24:25.050Z,88.40
2023-03-28T03:26:54.577Z,87.10
2023-03-28T03:29:22.790Z,87.87
2023-03-28T03:31:51.114Z,86.97
2023-03-28T03:34:19.491Z,88.87
2023-03-28T03:36:50.016Z,87.90
2023-03-28T03:39:18.461Z,85.10
2023-03-28T03:41:46.701Z,85.97
2023-03-28T03:44:16.389Z,84.93
2023-03-28T03:46:44.697Z,84.00
2023-03-28T03:49:13.098Z,82.10
2023-03-28T03:51:41.194Z,82.90
2023-03-28T03:54:09.452Z,81.03
2023-03-28T03:56:37.841Z,81.23
2023-03-28T03:59:06.493Z,82.17
2023-03-28T04:01:36.383Z,80.30
2023-03-28T04:04:04.500Z,79.70
2023-03-28T04:06:32.768Z,78.00
2023-03-28T04:09:01.041Z,77.20
2023-03-28T04:11:29.164Z,75.87
2023-03-28T04:13:57.366Z,76.77
2023-03-28T04:16:26.122Z,74.87
2023-03-28T04:18:55.691Z,73.00
2023-03-28T04:21:27.613Z,71.27
2023-03-28T04:23:56.809Z,72.70
2023-03-28T04:26:27.063Z,72.53
2023-03-28T04:28:56.136Z,74.17
2023-03-28T04:31:29.706Z,74.10
2023-03-28T04:34:00.444Z,73.33
2023-03-28T04:36:29.324Z,72.40
2023-03-28T04:38:58.415Z,73.70
2023-03-28T04:41:26.728Z,73.80
2023-03-28T04:43:55.060Z,74.00
2023-03-28T04:46:23.612Z,74.57
2023-03-28T04:48:56.232Z,73.43
2023-03-28T04:51:28.542Z,73.73
2023-03-28T04:53:56.788Z,72.53
2023-03-28T04:56:24.941Z,72.93
2023-03-28T04:58:53.065Z,76.80
2023-03-28T05:01:22.642Z,75.97
2023-03-28T05:03:50.891Z,71.67
2023-03-28T05:06:19.182Z,74.80
2023-03-28T05:08:48.867Z,71.97
2023-03-28T05:11:16.951Z,74.57
2023-03-28T05:13:45.259Z,73.27
2023-03-28T05:16:13.533Z,73.00
2023-03-28T05:18:41.677Z,72.43
2023-03-28T05:21:09.877Z,70.50
2023-03-28T05:23:38.113Z,68.77
2023-03-28T05:26:08.200Z,69.20
2023-03-28T05:28:36.735Z,68.10
2023-03-28T05:31:07.510Z,70.27
2023-03-28T05:33:37.862Z,71.87
2023-03-28T05:36:06.616Z,73.60
2023-03-28T05:38:34.692Z,73.67
2023-03-28T05:41:03.343Z,74.40
2023-03-28T05:43:33.106Z,75.40
2023-03-28T05:46:01.578Z,75.27
2023-03-28T05:48:29.921Z,75.67
2023-03-28T05:50:58.572Z,75.93
2023-03-28T05:53:27.004Z,76.43
2023-03-28T05:55:55.162Z,77.40
2023-03-28T05:58:23.362Z,75.00
2023-03-28T06:00:53.092Z,79.97
2023-03-28T06:03:22.260Z,81.03
2023-03-28T06:05:50.676Z,82.87
2023-03-28T06:08:18.792Z,81.50
2023-03-28T06:10:48.519Z,82.90
2023-03-28T06:13:16.708Z,85.00
2023-03-28T06:15:44.898Z,86.40
2023-03-28T06:18:14.443Z,88.40
2023-03-28T06:20:42.636Z,87.33
2023-03-28T06:23:11.104Z,91.47
2023-03-28T06:25:39.383Z,94.57
2023-03-28T06:28:07.626Z,92.97
2023-03-28T06:30:35.756Z,92.70
2023-03-28T06:33:03.999Z,95.30
2023-03-28T06:35:34.074Z,96.47
2023-03-28T06:38:02.640Z,102.00
2023-03-28T06:40:31.148Z,100.60
2023-03-28T06:42:59.557Z,101.47
2023-03-28T06:45:27.776Z,101.40
2023-03-28T06:47:56.201Z,99.97
2023-03-28T06:50:24.362Z,100.83
2023-03-28T06:52:53.898Z,101.20
2023-03-28T06:55:22.759Z,96.90
2023-03-28T06:57:50.927Z,96.80
2023-03-28T07:00:19.841Z,97.67
2023-03-28T07:02:48.006Z,100.53
2023-03-28T07:05:16.287Z,96.27
2023-03-28T07:07:44.354Z,93.37
2023-03-28T07:10:13.798Z,93.40
2023-03-28T07:12:41.851Z,92.00
2023-03-28T07:15:11.143Z,95.97
2023-03-28T07:17:39.268Z,98.20
2023-03-28T07:20:08.218Z,97.37
2023-03-28T07:22:36.591Z,99.70
2023-03-28T07:25:05.015Z,97.47
2023-03-28T07:27:34.514Z,99.63
2023-03-28T07:30:02.700Z,96.20
2023-03-28T07:32:35.750Z,95.47
2023-03-28T07:35:11.351Z,95.50
2023-03-28T07:37:39.603Z,90.47
2023-03-28T07:40:09.315Z,87.90
2023-03-28T07:42:39.135Z,90.50
2023-03-28T07:45:08.438Z,85.47
2023-03-28T07:47:36.575Z,84.90
2023-03-28T07:50:05.226Z,80.13
2023-03-28T07:52:33.580Z,81.67
2023-03-28T07:55:02.073Z,81.33
2023-03-28T07:57:30.288Z,82.10
2023-03-28T07:59:59.733Z,82.27
2023-03-28T08:02:28.102Z,84.87
2023-03-28T08:04:56.419Z,84.60
2023-03-28T08:07:25.676Z,73.37
2023-03-28T08:09:54.828Z,71.20
2023-03-28T08:12:24.497Z,67.50
2023-03-28T08:14:53.121Z,64.30
2023-03-28T08:17:23.189Z,63.17
2023-03-28T08:19:51.534Z,60.70
2023-03-28T08:22:19.880Z,54.63
2023-03-28T08:24:48.045Z,54.60
2023-03-28T08:27:16.273Z,53.80
2023-03-28T08:29:44.437Z,53.60
2023-03-28T08:32:12.690Z,56.57
2023-03-28T08:34:42.193Z,52.47
2023-03-28T08:37:10.511Z,42.37
2023-03-28T08:39:41.551Z,40.30
2023-03-28T08:42:26.507Z,35.77
2023-03-28T08:45:21.074Z,31.30
2023-03-28T08:48:01.577Z,30.77
2023-03-28T08:50:34.579Z,24.40
2023-03-28T08:53:04.981Z,26.00
2023-03-28T08:55:38.293Z,25.77
2023-03-28T08:58:07.099Z,22.93
2023-03-28T09:00:37.827Z,22.40
2023-03-28T09:03:13.375Z,21.53
2023-03-28T09:05:48.136Z,20.83
2023-03-28T09:08:29.067Z,20.00
2023-03-28T09:11:04.220Z,20.03
2023-03-28T09:13:43.316Z,19.67
2023-03-28T09:16:26.638Z,19.80
2023-03-28T09:19:11.642Z,19.40
2023-03-28T09:22:04.956Z,19.30
2023-03-28T09:24:52.266Z,19.50
2023-03-28T09:27:25.616Z,18.70
2023-03-28T09:30:01.289Z,18.50
2023-03-28T09:32:33.175Z,18.20
2023-03-28T09:35:02.079Z,18.63
2023-03-28T09:37:36.284Z,18.33
2023-03-28T09:40:17.883Z,18.03
2023-03-28T09:42:55.259Z,18.67
2023-03-28T09:45:35.063Z,17.90
2023-03-28T09:48:03.724Z,18.27
2023-03-28T09:50:32.313Z,18.47
2023-03-28T09:53:01.909Z,18.80
2023-03-28T09:55:32.146Z,18.67
2023-03-28T09:58:01.932Z,18.27
2023-03-28T10:00:30.704Z,18.20
2023-03-28T10:02:58.993Z,17.83
2023-03-28T10:05:36.732Z,17.63
2023-03-28T10:08:19.857Z,17.67
2023-03-28T10:11:00.861Z,17.90
2023-03-28T10:13:29.681Z,18.00
2023-03-28T10:15:59.648Z,18.00
2023-03-28T10:18:31.196Z,17.90
2023-03-28T10:21:14.172Z,17.70
2023-03-28T10:23:48.979Z,17.60
2023-03-28T10:26:23.408Z,17.97
2023-03-28T10:28:54.470Z,18.03
2023-03-28T10:31:29.378Z,17.50
2023-03-28T10:33:59.102Z,17.33
2023-03-28T10:36:31.463Z,17.63
2023-03-28T10:39:13.635Z,17.53
2023-03-28T10:41:53.890Z,17.90
2023-03-28T10:44:28.800Z,17.97
2023-03-28T10:46:59.310Z,17.97
2023-03-28T10:49:29.090Z,17.70
2023-03-28T10:51:57.582Z,17.53
2023-03-28T10:54:47.463Z,17.57
2023-03-28T10:57:22.186Z,17.57
2023-03-28T11:00:00.545Z,19.30
2023-03-28T11:03:00.644Z,18.03
2023-03-28T11:05:38.995Z,19.63
2023-03-28T11:08:25.772Z,18.00
2023-03-28T11:11:02.904Z,17.90
2023-03-28T11:13:37.251Z,17.90
2023-03-28T11:16:12.334Z,18.03
2023-03-28T11:18:59.853Z,17.93
2023-03-28T11:21:33.223Z,17.87
2023-03-28T11:24:11.333Z,18.00
2023-03-28T11:26:51.430Z,17.50
2023-03-28T11:29:42.043Z,17.70
2023-03-28T11:32:17.445Z,18.30
2023-03-28T11:34:50.266Z,18.00
2023-03-28T11:37:22.699Z,17.37
2023-03-28T11:39:55.641Z,17.70
2023-03-28T11:42:30.831Z,17.20
2023-03-28T11:45:08.217Z,17.70
2023-03-28T11:47:42.602Z,17.40
2023-03-28T11:50:18.304Z,17.57
2023-03-28T11:52:50.770Z,18.30
2023-03-28T11:55:21.677Z,17.57
2023-03-28T11:57:57.974Z,17.57
2023-03-28T12:00:34.138Z,17.73
2023-03-28T12:03:15.081Z,17.50
2023-03-28T12:05:49.860Z,17.40
2023-03-28T12:08:24.522Z,17.60
2023-03-28T12:10:58.639Z,17.20
2023-03-28T12:13:39.448Z,17.40
2023-03-28T12:16:15.970Z,16.83
2023-03-28T12:18:48.133Z,17.17
2023-03-28T12:21:23.097Z,17.47
2023-03-28T12:24:02.058Z,17.40
2023-03-28T12:26:39.681Z,17.13
2023-03-28T12:29:16.217Z,17.37
2023-03-28T12:31:51.796Z,17.13
2023-03-28T12:34:31.432Z,16.97
2023-03-28T12:37:11.959Z,16.83
2023-03-28T12:39:45.647Z,16.87
2023-03-28T12:42:15.855Z,17.50
2023-03-28T12:44:52.444Z,18.00
2023-03-28T12:47:25.831Z,17.03
2023-03-28T12:49:57.681Z,17.80
2023-03-28T12:52:32.010Z,17.20
2023-03-28T12:55:02.739Z,17.40
2023-03-28T12:57:46.014Z,17.60
2023-03-28T13:00:26.223Z,17.10
2023-03-28T13:03:08.352Z,17.13
2023-03-28T13:05:48.267Z,17.03
2023-03-28T13:08:24.205Z,17.03
2023-03-28T13:11:08.777Z,17.40
2023-03-28T13:13:46.808Z,17.20
2023-03-28T13:16:24.100Z,17.40
2023-03-28T13:19:07.627Z,17.70
2023-03-28T13:21:47.807Z,18.00
2023-03-28T13:24:31.485Z,17.50
2023-03-28T13:27:01.587Z,17.70
2023-03-28T13:29:46.513Z,17.70
2023-03-28T13:32:18.352Z,17.20
2023-03-28T13:34:50.589Z,16.87
2023-03-28T13:37:23.114Z,17.10
2023-03-28T13:39:53.648Z,17.43
2023-03-28T13:42:30.769Z,17.33
2023-03-28T13:45:02.866Z,18.67
2023-03-28T13:47:38.644Z,17.53
2023-03-28T13:50:17.218Z,17.47
2023-03-28T13:52:45.514Z,17.13
2023-03-28T13:55:22.034Z,17.20
2023-03-28T13:57:51.394Z,18.33
2023-03-28T14:00:24.074Z,16.77
2023-03-28T14:02:55.133Z,18.37
2023-03-28T14:05:26.323Z,17.27
2023-03-28T14:07:56.814Z,17.23
2023-03-28T14:10:31.227Z,17.23
2023-03-28T14:13:02.591Z,17.10
2023-03-28T14:15:37.484Z,17.73
2023-03-28T14:18:09.244Z,16.67
2023-03-28T14:20:39.781Z,16.80
2023-03-28T14:23:08.962Z,16.93
2023-03-28T14:25:37.268Z,16.43
2023-03-28T14:28:09.602Z,19.37
2023-03-28T14:30:42.750Z,16.80
2023-03-28T14:33:21.992Z,16.60
2023-03-28T14:36:01.782Z,17.00
2023-03-28T14:38:35.248Z,16.63
2023-03-28T14:41:14.542Z,16.40
2023-03-28T14:43:42.964Z,16.20
2023-03-28T14:46:12.327Z,16.47
2023-03-28T14:48:43.493Z,16.47
2023-03-28T14:51:14.577Z,16.23
2023-03-28T14:53:46.500Z,16.70
2023-03-28T14:56:19.284Z,16.40
2023-03-28T14:58:49.987Z,16.07
2023-03-28T15:01:23.194Z,16.27
2023-03-28T15:03:58.959Z,16.30
2023-03-28T15:06:29.308Z,16.90
2023-03-28T15:08:59.693Z,16.80
2023-03-28T15:11:32.741Z,16.90
2023-03-28T15:14:04.380Z,16.70
2023-03-28T15:16:36.984Z,17.00
2023-03-28T15:19:09.216Z,16.87
2023-03-28T15:21:39.528Z,16.40
2023-03-28T15:24:12.977Z,16.90
2023-03-28T15:26:44.722Z,16.63
2023-03-28T15:29:17.546Z,16.90
2023-03-28T15:31:46.538Z,16.83
2023-03-28T15:34:22.725Z,16.50
2023-03-28T15:36:54.326Z,17.03
2023-03-28T15:39:25.749Z,17.00
2023-03-28T15:41:56.159Z,16.00
2023-03-28T15:44:29.067Z,16.70
2023-03-28T15:47:01.721Z,16.50
2023-03-28T15:49:36.959Z,16.80
2023-03-28T15:52:09.341Z,16.47
2023-03-28T15:54:42.926Z,16.20
2023-03-28T15:57:12.508Z,16.60
2023-03-28T15:59:45.178Z,16.90
2023-03-28T16:02:32.956Z,17.87
2023-03-28T16:05:03.933Z,17.10
2023-03-28T16:07:38.593Z,18.37
2023-03-28T16:10:07.482Z,16.40
2023-03-28T16:12:35.720Z,16.87
2023-03-28T16:15:04.976Z,17.10
2023-03-28T16:17:33.727Z,17.30
2023-03-28T16:20:03.881Z,16.70
2023-03-28T16:22:32.008Z,16.80
2023-03-28T16:25:00.128Z,16.50
2023-03-28T16:27:28.227Z,16.27
2023-03-28T16:29:56.798Z,16.60
2023-03-28T16:32:25.127Z,16.53
2023-03-28T16:34:53.475Z,16.60
2023-03-28T16:37:22.938Z,15.80
2023-03-28T16:39:51.480Z,16.03
2023-03-28T16:42:20.868Z,15.23
2023-03-28T16:44:49.079Z,15.90
2023-03-28T16:47:17.222Z,16.20
2023-03-28T16:49:45.336Z,15.97
2023-03-28T16:52:13.325Z,16.07
2023-03-28T16:54:44.173Z,16.20
2023-03-28T16:57:12.330Z,16.30
2023-03-28T16:59:40.487Z,15.90
2023-03-28T17:02:09.166Z,16.47
2023-03-28T17:04:37.454Z,16.40
2023-03-28T17:07:06.104Z,16.90
2023-03-28T17:09:34.691Z,16.60
2023-03-28T17:12:04.306Z,16.50
2023-03-28T17:14:32.420Z,17.00
2023-03-28T17:17:00.766Z,16.93
2023-03-28T17:19:29.122Z,16.83
2023-03-28T17:21:57.864Z,16.80
2023-03-28T17:24:26.049Z,17.00
2023-03-28T17:26:54.360Z,17.17
2023-03-28T17:29:24.095Z,17.50
2023-03-28T17:31:52.613Z,17.10
2023-03-28T17:34:21.463Z,16.50
2023-03-28T17:36:51.059Z,16.57
2023-03-28T17:39:19.230Z,16.30
2023-03-28T17:41:47.296Z,16.77
2023-03-28T17:44:15.465Z,17.00
2023-03-28T17:46:46.827Z,16.50
2023-03-28T17:49:16.986Z,16.40
2023-03-28T17:51:46.249Z,16.60
2023-03-28T17:54:14.617Z,18.37
2023-03-28T17:56:43.240Z,18.53
2023-03-28T17:59:11.900Z,19.33
2023-03-28T18:01:41.052Z,20.10
2023-03-28T18:04:10.555Z,17.63
2023-03-28T18:06:38.728Z,19.60
2023-03-28T18:09:06.967Z,19.77
2023-03-28T18:11:39.168Z,19.30
2023-03-28T18:14:08.526Z,20.00
2023-03-28T18:16:38.686Z,18.17
2023-03-28T18:19:09.052Z,20.30
2023-03-28T18:21:38.517Z,19.17
2023-03-28T18:24:07.980Z,19.80
2023-03-28T18:26:36.109Z,19.83
2023-03-28T18:29:04.853Z,20.30
2023-03-28T18:31:33.043Z,21.03
2023-03-28T18:34:05.058Z,20.20
2023-03-28T18:36:36.953Z,20.20
2023-03-28T18:39:07.049Z,20.87
2023-03-28T18:41:35.388Z,20.20
2023-03-28T18:44:03.593Z,19.67
2023-03-28T18:46:31.735Z,19.27
2023-03-28T18:49:00.238Z,20.10
2023-03-28T18:51:28.739Z,19.80
2023-03-28T18:53:57.235Z,20.97
2023-03-28T18:56:26.737Z,19.97
2023-03-28T18:58:54.800Z,20.83
2023-03-28T19:01:23.764Z,21.50
2023-03-28T19:03:52.335Z,21.47
2023-03-28T19:06:21.106Z,21.57
2023-03-28T19:08:49.786Z,22.50
2023-03-28T19:11:19.689Z,23.23
2023-03-28T19:13:50.389Z,23.47
2023-03-28T19:16:19.701Z,24.20
2023-03-28T19:18:48.675Z,25.37
2023-03-28T19:21:17.709Z,25.13
2023-03-28T19:23:48.622Z,26.30
2023-03-28T19:26:18.189Z,27.00
2023-03-28T19:28:46.887Z,26.70
2023-03-28T19:31:17.107Z,25.30
2023-03-28T19:33:46.283Z,26.77
2023-03-28T19:36:14.447Z,28.27
2023-03-28T19:38:42.718Z,27.00
2023-03-28T19:41:17.398Z,28.53
2023-03-28T19:43:46.228Z,27.63
2023-03-28T19:46:19.526Z,27.00
2023-03-28T19:48:47.907Z,27.20
2023-03-28T19:51:17.182Z,28.37
2023-03-28T19:53:45.433Z,29.10
2023-03-28T19:56:14.111Z,27.40
2023-03-28T19:58:42.422Z,28.20
2023-03-28T20:01:10.499Z,27.50
2023-03-28T20:03:40.805Z,26.90
2023-03-28T20:06:12.317Z,26.37
2023-03-28T20:08:40.985Z,26.53
2023-03-28T20:11:09.771Z,24.07
2023-03-28T20:13:37.978Z,24.97
2023-03-28T20:16:07.690Z,24.97
2023-03-28T20:18:37.047Z,25.70
2023-03-28T20:21:09.348Z,25.73
2023-03-28T20:23:37.956Z,26.90
2023-03-28T20:26:18.561Z,27.30
2023-03-28T20:28:49.594Z,28.80
2023-03-28T20:31:18.587Z,28.07
2023-03-28T20:33:46.951Z,28.50
2023-03-28T20:36:16.513Z,28.23
2023-03-28T20:38:44.741Z,29.10
2023-03-28T20:41:13.660Z,29.47
2023-03-28T20:43:46.418Z,29.57
2023-03-28T20:46:18.311Z,30.87
2023-03-28T20:48:48.022Z,30.87
2023-03-28T20:51:18.721Z,33.03
2023-03-28T20:53:49.456Z,32.20
2023-03-28T20:56:18.886Z,33.10
2023-03-28T20:58:47.706Z,32.00
2023-03-28T21:01:17.731Z,32.90
2023-03-28T21:03:49.826Z,32.73
2023-03-28T21:06:22.327Z,32.60
2023-03-28T21:08:51.598Z,32.00
2023-03-28T21:11:22.196Z,32.50
2023-03-28T21:13:50.778Z,31.57
2023-03-28T21:16:20.988Z,32.17
2023-03-28T21:18:49.462Z,30.60
2023-03-28T21:21:20.669Z,33.23
2023-03-28T21:23:49.372Z,32.40
2023-03-28T21:26:18.890Z,33.53
2023-03-28T21:28:47.468Z,33.10
2023-03-28T21:31:18.286Z,33.57
2023-03-28T21:33:47.443Z,34.20
2023-03-28T21:36:17.862Z,32.30
2023-03-28T21:38:48.711Z,34.23
2023-03-28T21:41:18.077Z,32.93
2023-03-28T21:43:47.648Z,35.90
2023-03-28T21:46:18.322Z,35.90
2023-03-28T21:48:47.853Z,35.13
2023-03-28T21:51:17.383Z,38.20
2023-03-28T21:53:47.110Z,39.20
2023-03-28T21:56:16.726Z,37.30
2023-03-28T21:58:44.977Z,33.63
2023-03-28T22:01:14.558Z,35.17
2023-03-28T22:03:42.824Z,34.80
2023-03-28T22:06:11.464Z,34.57
2023-03-28T22:08:39.606Z,34.23
2023-03-28T22:11:14.711Z,34.10
2023-03-28T22:13:44.872Z,35.17
2023-03-28T22:16:14.171Z,36.50
2023-03-28T22:18:50.236Z,35.30
2023-03-28T22:21:18.560Z,35.87
2023-03-28T22:23:47.791Z,33.90
2023-03-28T22:26:17.925Z,33.97
2023-03-28T22:28:46.147Z,34.20
2023-03-28T22:31:16.737Z,32.73
2023-03-28T22:33:45.088Z,33.20
2023-03-28T22:36:13.624Z,34.10
2023-03-28T22:38:41.940Z,32.93
2023-03-28T22:41:10.107Z,32.27
2023-03-28T22:43:42.863Z,32.07
2023-03-28T22:46:16.393Z,31.63
2023-03-28T22:48:44.724Z,31.90
2023-03-28T22:51:13.960Z,30.83
2023-03-28T22:53:42.122Z,31.03
2023-03-28T22:56:12.327Z,30.17
2023-03-28T22:58:41.730Z,30.77
2023-03-28T23:01:10.045Z,31.40
2023-03-28T23:03:38.309Z,30.47
2023-03-28T23:06:07.265Z,31.20
2023-03-28T23:08:35.854Z,31.20
2023-03-28T23:11:04.243Z,32.67
2023-03-28T23:13:32.566Z,32.67
2023-03-28T23:16:02.728Z,32.30
2023-03-28T23:18:31.163Z,31.97
2023-03-28T23:20:59.490Z,32.93
2023-03-28T23:23:28.217Z,32.53
2023-03-28T23:25:56.311Z,32.63
2023-03-28T23:28:24.451Z,32.60
2023-03-28T23:30:52.548Z,32.63
2023-03-28T23:33:22.005Z,32.30
2023-03-28T23:35:50.437Z,32.90
2023-03-28T23:38:18.565Z,32.33
2023-03-28T23:40:46.820Z,33.30
2023-03-28T23:43:15.504Z,34.77
2023-03-28T23:45:44.809Z,34.83
2023-03-28T23:48:13.283Z,33.90
2023-03-28T23:50:43.112Z,33.33
2023-03-28T23:53:11.629Z,31.40
2023-03-28T23:55:39.969Z,32.80
2023-03-28T23:58:08.226Z,33.90
